sensor_id;sensor_type;location;lat;lon;timestamp;temperature;humidity
63219;DHT22;49320;52.512;13.448;2022-12-29T00:01:43;11.70;79.90
63219;DHT22;49320;52.512;13.448;2022-12-29T00:04:13;11.70;79.20
63219;DHT22;49320;52.512;13.448;2022-12-29T00:06:42;11.70;79.80
63219;DHT22;49320;52.512;13.448;2022-12-29T00:09:11;11.70;79.90
63219;DHT22;49320;52.512;13.448;2022-12-29T00:11:39;11.70;79.90
63219;DHT22;49320;52.512;13.448;2022-12-29T00:14:08;11.70;79.80
63219;DHT22;49320;52.512;13.448;2022-12-29T00:16:55;11.70;79.70
63219;DHT22;49320;52.512;13.448;2022-12-29T00:19:22;11.70;79.60
63219;DHT22;49320;52.512;13.448;2022-12-29T00:22:10;11.70;79.80
63219;DHT22;49320;52.512;13.448;2022-12-29T00:24:57;11.70;79.60
63219;DHT22;49320;52.512;13.448;2022-12-29T00:27:43;11.70;79.60
63219;DHT22;49320;52.512;13.448;2022-12-29T00:30:33;11.70;79.60
63219;DHT22;49320;52.512;13.448;2022-12-29T00:33:22;11.80;79.60
63219;DHT22;49320;52.512;13.448;2022-12-29T00:36:30;11.70;79.60
63219;DHT22;49320;52.512;13.448;2022-12-29T00:39:07;11.70;79.50
63219;DHT22;49320;52.512;13.448;2022-12-29T00:41:56;11.80;79.70
63219;DHT22;49320;52.512;13.448;2022-12-29T00:44:48;11.80;79.60
63219;DHT22;49320;52.512;13.448;2022-12-29T00:47:15;11.80;79.50
63219;DHT22;49320;52.512;13.448;2022-12-29T00:49:43;11.80;79.50
63219;DHT22;49320;52.512;13.448;2022-12-29T00:52:12;11.80;79.40
63219;DHT22;49320;52.512;13.448;2022-12-29T00:54:40;11.80;79.40
63219;DHT22;49320;52.512;13.448;2022-12-29T00:57:11;11.80;79.30
63219;DHT22;49320;52.512;13.448;2022-12-29T00:59:39;11.80;79.30
63219;DHT22;49320;52.512;13.448;2022-12-29T01:02:08;11.90;79.30
63219;DHT22;49320;52.512;13.448;2022-12-29T01:04:35;11.80;79.20
63219;DHT22;49320;52.512;13.448;2022-12-29T01:07:02;11.90;79.10
63219;DHT22;49320;52.512;13.448;2022-12-29T01:09:29;11.80;79.10
63219;DHT22;49320;52.512;13.448;2022-12-29T01:12:16;11.90;79.10
63219;DHT22;49320;52.512;13.448;2022-12-29T01:14:43;11.90;79.10
63219;DHT22;49320;52.512;13.448;2022-12-29T01:17:10;11.90;79.20
63219;DHT22;49320;52.512;13.448;2022-12-29T01:19:37;11.90;79.00
63219;DHT22;49320;52.512;13.448;2022-12-29T01:22:04;11.90;79.00
63219;DHT22;49320;52.512;13.448;2022-12-29T01:24:31;11.90;78.90
63219;DHT22;49320;52.512;13.448;2022-12-29T01:26:57;11.90;78.90
63219;DHT22;49320;52.512;13.448;2022-12-29T01:29:24;12.00;79.10
63219;DHT22;49320;52.512;13.448;2022-12-29T01:31:51;11.90;79.00
63219;DHT22;49320;52.512;13.448;2022-12-29T01:34:18;11.90;79.10
63219;DHT22;49320;52.512;13.448;2022-12-29T01:36:45;11.90;79.10
63219;DHT22;49320;52.512;13.448;2022-12-29T01:39:12;11.90;79.00
63219;DHT22;49320;52.512;13.448;2022-12-29T01:41:41;11.90;79.00
63219;DHT22;49320;52.512;13.448;2022-12-29T01:44:46;11.90;78.40
63219;DHT22;49320;52.512;13.448;2022-12-29T01:49:57;11.90;79.00
63219;DHT22;49320;52.512;13.448;2022-12-29T01:52:30;12.00;79.10
63219;DHT22;49320;52.512;13.448;2022-12-29T01:55:00;11.90;79.00
63219;DHT22;49320;52.512;13.448;2022-12-29T01:57:33;11.80;79.00
63219;DHT22;49320;52.512;13.448;2022-12-29T02:00:09;11.90;79.00
63219;DHT22;49320;52.512;13.448;2022-12-29T02:02:42;11.90;79.00
63219;DHT22;49320;52.512;13.448;2022-12-29T02:05:24;11.90;79.10
63219;DHT22;49320;52.512;13.448;2022-12-29T02:07:54;11.90;79.30
63219;DHT22;49320;52.512;13.448;2022-12-29T02:10:23;11.90;79.20
63219;DHT22;49320;52.512;13.448;2022-12-29T02:12:53;11.90;79.30
63219;DHT22;49320;52.512;13.448;2022-12-29T02:15:31;11.90;78.80
63219;DHT22;49320;52.512;13.448;2022-12-29T02:18:26;11.90;79.50
63219;DHT22;49320;52.512;13.448;2022-12-29T02:21:48;11.90;79.60
63219;DHT22;49320;52.512;13.448;2022-12-29T02:31:01;11.90;79.20
63219;DHT22;49320;52.512;13.448;2022-12-29T02:37:00;11.80;79.50
63219;DHT22;49320;52.512;13.448;2022-12-29T02:45:13;11.80;79.00
63219;DHT22;49320;52.512;13.448;2022-12-29T02:48:07;11.80;79.50
63219;DHT22;49320;52.512;13.448;2022-12-29T02:51:50;11.80;79.50
63219;DHT22;49320;52.512;13.448;2022-12-29T02:53:50;11.80;79.40
63219;DHT22;49320;52.512;13.448;2022-12-29T02:56:52;11.90;79.40
63219;DHT22;49320;52.512;13.448;2022-12-29T02:59:19;11.80;79.20
63219;DHT22;49320;52.512;13.448;2022-12-29T03:02:09;11.90;79.30
63219;DHT22;49320;52.512;13.448;2022-12-29T03:08:11;11.90;79.20
63219;DHT22;49320;52.512;13.448;2022-12-29T03:11:12;12.00;78.80
63219;DHT22;49320;52.512;13.448;2022-12-29T03:14:17;12.00;78.60
63219;DHT22;49320;52.512;13.448;2022-12-29T03:17:24;12.00;78.60
63219;DHT22;49320;52.512;13.448;2022-12-29T03:20:04;12.00;78.50
63219;DHT22;49320;52.512;13.448;2022-12-29T03:22:38;12.00;78.40
63219;DHT22;49320;52.512;13.448;2022-12-29T03:25:19;12.10;78.40
63219;DHT22;49320;52.512;13.448;2022-12-29T03:28:02;12.10;78.30
63219;DHT22;49320;52.512;13.448;2022-12-29T03:30:34;12.20;78.00
63219;DHT22;49320;52.512;13.448;2022-12-29T03:33:06;12.10;78.20
63219;DHT22;49320;52.512;13.448;2022-12-29T03:35:37;12.20;78.10
63219;DHT22;49320;52.512;13.448;2022-12-29T03:40:47;12.20;77.80
63219;DHT22;49320;52.512;13.448;2022-12-29T03:43:17;12.30;77.90
63219;DHT22;49320;52.512;13.448;2022-12-29T03:45:44;12.40;77.90
63219;DHT22;49320;52.512;13.448;2022-12-29T03:48:11;12.40;78.40
63219;DHT22;49320;52.512;13.448;2022-12-29T03:50:38;12.40;77.60
63219;DHT22;49320;52.512;13.448;2022-12-29T03:53:05;12.40;77.50
63219;DHT22;49320;52.512;13.448;2022-12-29T03:55:31;12.50;77.60
63219;DHT22;49320;52.512;13.448;2022-12-29T03:57:59;12.50;77.50
63219;DHT22;49320;52.512;13.448;2022-12-29T04:00:26;12.60;77.40
63219;DHT22;49320;52.512;13.448;2022-12-29T04:02:52;12.60;77.10
63219;DHT22;49320;52.512;13.448;2022-12-29T04:05:20;12.60;77.10
63219;DHT22;49320;52.512;13.448;2022-12-29T04:07:47;12.60;77.00
63219;DHT22;49320;52.512;13.448;2022-12-29T04:10:14;12.60;76.90
63219;DHT22;49320;52.512;13.448;2022-12-29T04:12:41;12.60;76.90
63219;DHT22;49320;52.512;13.448;2022-12-29T04:15:09;12.60;77.00
63219;DHT22;49320;52.512;13.448;2022-12-29T04:17:36;12.70;76.80
63219;DHT22;49320;52.512;13.448;2022-12-29T04:20:04;12.70;76.90
63219;DHT22;49320;52.512;13.448;2022-12-29T04:22:56;12.70;76.80
63219;DHT22;49320;52.512;13.448;2022-12-29T04:25:24;12.70;76.80
63219;DHT22;49320;52.512;13.448;2022-12-29T04:27:51;12.80;76.80
63219;DHT22;49320;52.512;13.448;2022-12-29T04:30:18;12.70;76.60
63219;DHT22;49320;52.512;13.448;2022-12-29T04:32:45;12.80;76.60
63219;DHT22;49320;52.512;13.448;2022-12-29T04:35:12;12.80;76.50
63219;DHT22;49320;52.512;13.448;2022-12-29T04:37:38;12.80;76.50
63219;DHT22;49320;52.512;13.448;2022-12-29T04:40:06;12.80;76.30
63219;DHT22;49320;52.512;13.448;2022-12-29T04:42:33;12.90;76.30
63219;DHT22;49320;52.512;13.448;2022-12-29T04:45:00;12.90;76.30
63219;DHT22;49320;52.512;13.448;2022-12-29T04:47:27;12.90;76.20
63219;DHT22;49320;52.512;13.448;2022-12-29T04:49:53;12.90;76.10
63219;DHT22;49320;52.512;13.448;2022-12-29T04:52:20;12.90;76.10
63219;DHT22;49320;52.512;13.448;2022-12-29T04:54:47;12.90;76.00
63219;DHT22;49320;52.512;13.448;2022-12-29T04:57:13;12.90;76.00
63219;DHT22;49320;52.512;13.448;2022-12-29T04:59:40;12.90;75.90
63219;DHT22;49320;52.512;13.448;2022-12-29T05:02:08;13.00;76.00
63219;DHT22;49320;52.512;13.448;2022-12-29T05:04:35;12.90;75.90
63219;DHT22;49320;52.512;13.448;2022-12-29T05:07:01;12.90;75.90
63219;DHT22;49320;52.512;13.448;2022-12-29T05:09:28;12.90;76.50
63219;DHT22;49320;52.512;13.448;2022-12-29T05:11:56;12.90;75.90
63219;DHT22;49320;52.512;13.448;2022-12-29T05:14:23;12.90;75.70
63219;DHT22;49320;52.512;13.448;2022-12-29T05:16:50;12.90;75.10
63219;DHT22;49320;52.512;13.448;2022-12-29T05:19:16;12.80;75.70
63219;DHT22;49320;52.512;13.448;2022-12-29T05:21:44;12.90;75.90
63219;DHT22;49320;52.512;13.448;2022-12-29T05:24:10;12.90;75.70
63219;DHT22;49320;52.512;13.448;2022-12-29T05:26:37;12.90;75.70
63219;DHT22;49320;52.512;13.448;2022-12-29T05:29:04;12.90;75.70
63219;DHT22;49320;52.512;13.448;2022-12-29T05:31:31;12.90;75.70
63219;DHT22;49320;52.512;13.448;2022-12-29T05:36:25;12.90;75.10
63219;DHT22;49320;52.512;13.448;2022-12-29T05:38:51;13.00;75.90
63219;DHT22;49320;52.512;13.448;2022-12-29T05:43:46;13.00;75.10
63219;DHT22;49320;52.512;13.448;2022-12-29T05:46:12;13.00;75.80
63219;DHT22;49320;52.512;13.448;2022-12-29T05:48:40;13.00;76.00
63219;DHT22;49320;52.512;13.448;2022-12-29T05:51:06;13.00;75.90
63219;DHT22;49320;52.512;13.448;2022-12-29T05:53:33;13.10;75.90
63219;DHT22;49320;52.512;13.448;2022-12-29T05:56:00;13.10;75.90
63219;DHT22;49320;52.512;13.448;2022-12-29T05:58:26;13.10;75.90
63219;DHT22;49320;52.512;13.448;2022-12-29T06:00:53;13.10;76.00
63219;DHT22;49320;52.512;13.448;2022-12-29T06:03:20;13.20;76.00
63219;DHT22;49320;52.512;13.448;2022-12-29T06:05:47;13.20;76.00
63219;DHT22;49320;52.512;13.448;2022-12-29T06:08:15;13.20;75.90
63219;DHT22;49320;52.512;13.448;2022-12-29T06:10:42;13.20;75.90
63219;DHT22;49320;52.512;13.448;2022-12-29T06:13:08;13.30;76.00
63219;DHT22;49320;52.512;13.448;2022-12-29T06:15:36;13.30;75.90
63219;DHT22;49320;52.512;13.448;2022-12-29T06:18:02;13.30;75.90
63219;DHT22;49320;52.512;13.448;2022-12-29T06:20:29;13.30;75.90
63219;DHT22;49320;52.512;13.448;2022-12-29T06:22:56;13.40;75.90
63219;DHT22;49320;52.512;13.448;2022-12-29T06:25:23;13.40;75.80
63219;DHT22;49320;52.512;13.448;2022-12-29T06:27:49;13.40;75.70
63219;DHT22;49320;52.512;13.448;2022-12-29T06:30:16;13.40;75.00
63219;DHT22;49320;52.512;13.448;2022-12-29T06:32:44;13.40;75.70
63219;DHT22;49320;52.512;13.448;2022-12-29T06:35:10;13.50;75.60
63219;DHT22;49320;52.512;13.448;2022-12-29T06:37:37;13.50;75.60
63219;DHT22;49320;52.512;13.448;2022-12-29T06:40:05;13.50;74.90
63219;DHT22;49320;52.512;13.448;2022-12-29T06:42:32;13.50;75.50
63219;DHT22;49320;52.512;13.448;2022-12-29T06:44:59;13.60;75.50
63219;DHT22;49320;52.512;13.448;2022-12-29T06:47:27;13.60;75.50
63219;DHT22;49320;52.512;13.448;2022-12-29T06:49:53;13.60;75.40
63219;DHT22;49320;52.512;13.448;2022-12-29T06:52:20;13.60;75.40
63219;DHT22;49320;52.512;13.448;2022-12-29T06:54:47;13.60;75.30
63219;DHT22;49320;52.512;13.448;2022-12-29T06:57:14;13.60;75.30
63219;DHT22;49320;52.512;13.448;2022-12-29T06:59:41;13.60;75.20
63219;DHT22;49320;52.512;13.448;2022-12-29T07:02:10;13.70;75.10
63219;DHT22;49320;52.512;13.448;2022-12-29T07:04:38;13.70;75.00
63219;DHT22;49320;52.512;13.448;2022-12-29T07:07:04;13.70;75.10
63219;DHT22;49320;52.512;13.448;2022-12-29T07:09:31;12.70;74.30
63219;DHT22;49320;52.512;13.448;2022-12-29T07:11:59;13.70;74.90
63219;DHT22;49320;52.512;13.448;2022-12-29T07:14:26;13.70;74.90
63219;DHT22;49320;52.512;13.448;2022-12-29T07:16:53;13.60;74.70
63219;DHT22;49320;52.512;13.448;2022-12-29T07:19:20;13.60;74.70
63219;DHT22;49320;52.512;13.448;2022-12-29T07:21:47;13.70;74.80
63219;DHT22;49320;52.512;13.448;2022-12-29T07:24:14;13.60;74.80
63219;DHT22;49320;52.512;13.448;2022-12-29T07:26:41;13.60;74.10
63219;DHT22;49320;52.512;13.448;2022-12-29T07:29:08;13.50;74.80
63219;DHT22;49320;52.512;13.448;2022-12-29T07:31:34;13.60;74.90
63219;DHT22;49320;52.512;13.448;2022-12-29T07:34:01;13.60;74.80
63219;DHT22;49320;52.512;13.448;2022-12-29T07:36:28;13.60;74.90
63219;DHT22;49320;52.512;13.448;2022-12-29T07:39:00;13.50;74.80
63219;DHT22;49320;52.512;13.448;2022-12-29T07:41:27;13.50;74.80
63219;DHT22;49320;52.512;13.448;2022-12-29T07:43:54;13.50;74.30
63219;DHT22;49320;52.512;13.448;2022-12-29T07:46:21;13.50;74.90
63219;DHT22;49320;52.512;13.448;2022-12-29T07:49:08;13.50;74.90
63219;DHT22;49320;52.512;13.448;2022-12-29T07:51:34;13.50;75.00
63219;DHT22;49320;52.512;13.448;2022-12-29T07:54:01;13.50;75.00
63219;DHT22;49320;52.512;13.448;2022-12-29T07:56:28;13.50;75.10
63219;DHT22;49320;52.512;13.448;2022-12-29T07:58:55;13.50;75.10
63219;DHT22;49320;52.512;13.448;2022-12-29T08:01:22;13.50;75.30
63219;DHT22;49320;52.512;13.448;2022-12-29T08:03:50;13.50;75.30
63219;DHT22;49320;52.512;13.448;2022-12-29T08:06:22;13.60;75.40
63219;DHT22;49320;52.512;13.448;2022-12-29T08:08:49;13.50;75.30
63219;DHT22;49320;52.512;13.448;2022-12-29T08:11:16;13.60;75.40
63219;DHT22;49320;52.512;13.448;2022-12-29T08:13:43;13.60;75.30
63219;DHT22;49320;52.512;13.448;2022-12-29T08:16:09;13.60;75.10
63219;DHT22;49320;52.512;13.448;2022-12-29T08:18:37;13.70;75.30
63219;DHT22;49320;52.512;13.448;2022-12-29T08:21:05;13.70;75.20
63219;DHT22;49320;52.512;13.448;2022-12-29T08:23:32;13.80;75.30
63219;DHT22;49320;52.512;13.448;2022-12-29T08:26:05;13.80;75.10
63219;DHT22;49320;52.512;13.448;2022-12-29T08:28:32;13.80;74.90
63219;DHT22;49320;52.512;13.448;2022-12-29T08:31:01;13.80;75.00
63219;DHT22;49320;52.512;13.448;2022-12-29T08:33:29;13.80;74.90
63219;DHT22;49320;52.512;13.448;2022-12-29T08:36:04;13.80;74.80
63219;DHT22;49320;52.512;13.448;2022-12-29T08:38:32;13.90;74.60
63219;DHT22;49320;52.512;13.448;2022-12-29T08:40:59;13.90;73.90
63219;DHT22;49320;52.512;13.448;2022-12-29T08:43:28;13.90;74.70
63219;DHT22;49320;52.512;13.448;2022-12-29T08:45:56;14.00;74.50
63219;DHT22;49320;52.512;13.448;2022-12-29T08:48:24;14.00;74.50
63219;DHT22;49320;52.512;13.448;2022-12-29T08:50:52;13.90;74.50
63219;DHT22;49320;52.512;13.448;2022-12-29T08:53:19;13.80;74.50
63219;DHT22;49320;52.512;13.448;2022-12-29T08:55:47;13.90;74.60
63219;DHT22;49320;52.512;13.448;2022-12-29T08:58:28;13.80;74.50
63219;DHT22;49320;52.512;13.448;2022-12-29T09:00:55;13.90;74.60
63219;DHT22;49320;52.512;13.448;2022-12-29T09:03:26;13.90;74.60
63219;DHT22;49320;52.512;13.448;2022-12-29T09:06:14;13.90;74.50
63219;DHT22;49320;52.512;13.448;2022-12-29T09:08:43;13.90;74.50
63219;DHT22;49320;52.512;13.448;2022-12-29T09:11:12;14.00;74.50
63219;DHT22;49320;52.512;13.448;2022-12-29T09:13:45;13.90;74.40
63219;DHT22;49320;52.512;13.448;2022-12-29T09:16:12;13.90;75.00
63219;DHT22;49320;52.512;13.448;2022-12-29T09:18:39;14.00;74.30
63219;DHT22;49320;52.512;13.448;2022-12-29T09:21:07;14.00;74.00
63219;DHT22;49320;52.512;13.448;2022-12-29T09:23:34;14.00;73.40
63219;DHT22;49320;52.512;13.448;2022-12-29T09:26:01;14.00;74.10
63219;DHT22;49320;52.512;13.448;2022-12-29T09:28:29;14.00;74.20
63219;DHT22;49320;52.512;13.448;2022-12-29T09:30:57;14.00;74.20
63219;DHT22;49320;52.512;13.448;2022-12-29T09:33:24;14.00;74.30
63219;DHT22;49320;52.512;13.448;2022-12-29T09:35:54;14.00;74.20
63219;DHT22;49320;52.512;13.448;2022-12-29T09:38:23;14.00;74.10
63219;DHT22;49320;52.512;13.448;2022-12-29T09:40:54;14.10;74.20
63219;DHT22;49320;52.512;13.448;2022-12-29T09:46:34;14.10;73.90
63219;DHT22;49320;52.512;13.448;2022-12-29T09:52:24;14.10;74.00
63219;DHT22;49320;52.512;13.448;2022-12-29T09:57:54;14.10;74.10
63219;DHT22;49320;52.512;13.448;2022-12-29T10:12:52;14.30;73.70
63219;DHT22;49320;52.512;13.448;2022-12-29T10:15:57;14.40;73.80
63219;DHT22;49320;52.512;13.448;2022-12-29T10:18:56;14.40;73.70
63219;DHT22;49320;52.512;13.448;2022-12-29T10:21:52;14.50;73.60
63219;DHT22;49320;52.512;13.448;2022-12-29T10:24:31;14.50;73.60
63219;DHT22;49320;52.512;13.448;2022-12-29T10:27:01;14.50;73.80
63219;DHT22;49320;52.512;13.448;2022-12-29T10:29:37;14.50;73.70
63219;DHT22;49320;52.512;13.448;2022-12-29T10:32:40;14.60;73.70
63219;DHT22;49320;52.512;13.448;2022-12-29T10:35:24;14.60;73.60
63219;DHT22;49320;52.512;13.448;2022-12-29T10:38:00;13.60;73.10
63219;DHT22;49320;52.512;13.448;2022-12-29T10:40:53;14.60;73.70
63219;DHT22;49320;52.512;13.448;2022-12-29T10:43:45;14.70;73.60
63219;DHT22;49320;52.512;13.448;2022-12-29T10:46:17;14.80;73.60
63219;DHT22;49320;52.512;13.448;2022-12-29T10:48:47;14.90;73.80
63219;DHT22;49320;52.512;13.448;2022-12-29T10:51:21;14.90;73.80
63219;DHT22;49320;52.512;13.448;2022-12-29T10:53:52;15.00;73.40
63219;DHT22;49320;52.512;13.448;2022-12-29T10:56:41;15.00;73.50
63219;DHT22;49320;52.512;13.448;2022-12-29T10:59:21;15.10;73.00
63219;DHT22;49320;52.512;13.448;2022-12-29T11:02:21;15.20;73.20
63219;DHT22;49320;52.512;13.448;2022-12-29T11:05:33;15.20;72.50
63219;DHT22;49320;52.512;13.448;2022-12-29T11:08:12;15.30;73.10
63219;DHT22;49320;52.512;13.448;2022-12-29T11:10:45;15.30;72.40
63219;DHT22;49320;52.512;13.448;2022-12-29T11:13:18;15.40;72.70
63219;DHT22;49320;52.512;13.448;2022-12-29T11:15:52;15.40;72.50
63219;DHT22;49320;52.512;13.448;2022-12-29T11:18:25;15.50;72.50
63219;DHT22;49320;52.512;13.448;2022-12-29T11:20:59;15.50;72.10
63219;DHT22;49320;52.512;13.448;2022-12-29T11:23:34;15.60;72.00
63219;DHT22;49320;52.512;13.448;2022-12-29T11:28:34;15.70;71.60
63219;DHT22;49320;52.512;13.448;2022-12-29T11:31:04;15.70;71.60
63219;DHT22;49320;52.512;13.448;2022-12-29T11:33:37;15.70;71.50
63219;DHT22;49320;52.512;13.448;2022-12-29T11:36:17;15.70;71.30
63219;DHT22;49320;52.512;13.448;2022-12-29T11:38:50;15.70;70.90
63219;DHT22;49320;52.512;13.448;2022-12-29T11:41:24;15.70;71.20
63219;DHT22;49320;52.512;13.448;2022-12-29T11:43:56;15.70;70.50
63219;DHT22;49320;52.512;13.448;2022-12-29T11:46:30;15.70;71.10
63219;DHT22;49320;52.512;13.448;2022-12-29T11:49:00;15.70;71.20
63219;DHT22;49320;52.512;13.448;2022-12-29T11:51:31;15.60;71.40
63219;DHT22;49320;52.512;13.448;2022-12-29T11:54:05;15.60;71.40
63219;DHT22;49320;52.512;13.448;2022-12-29T11:56:38;15.60;71.50
63219;DHT22;49320;52.512;13.448;2022-12-29T11:59:38;15.50;71.60
63219;DHT22;49320;52.512;13.448;2022-12-29T12:05:35;15.50;72.00
63219;DHT22;49320;52.512;13.448;2022-12-29T12:08:19;15.40;72.00
63219;DHT22;49320;52.512;13.448;2022-12-29T12:10:57;15.40;72.10
63219;DHT22;49320;52.512;13.448;2022-12-29T12:13:35;15.30;72.10
63219;DHT22;49320;52.512;13.448;2022-12-29T12:16:15;15.30;72.30
63219;DHT22;49320;52.512;13.448;2022-12-29T12:18:55;15.30;72.60
63219;DHT22;49320;52.512;13.448;2022-12-29T12:21:40;15.20;72.80
63219;DHT22;49320;52.512;13.448;2022-12-29T12:24:36;15.20;73.00
63219;DHT22;49320;52.512;13.448;2022-12-29T12:27:37;15.10;73.30
63219;DHT22;49320;52.512;13.448;2022-12-29T12:30:24;15.00;73.30
63219;DHT22;49320;52.512;13.448;2022-12-29T12:32:57;14.90;73.70
63219;DHT22;49320;52.512;13.448;2022-12-29T12:35:38;14.70;73.70
63219;DHT22;49320;52.512;13.448;2022-12-29T12:38:19;14.70;74.20
63219;DHT22;49320;52.512;13.448;2022-12-29T12:41:25;14.70;74.30
63219;DHT22;49320;52.512;13.448;2022-12-29T12:44:11;14.60;74.70
63219;DHT22;49320;52.512;13.448;2022-12-29T12:50:14;14.60;75.70
63219;DHT22;49320;52.512;13.448;2022-12-29T12:53:00;14.50;75.60
63219;DHT22;49320;52.512;13.448;2022-12-29T13:01:46;14.40;76.00
63219;DHT22;49320;52.512;13.448;2022-12-29T13:04:40;14.40;76.00
63219;DHT22;49320;52.512;13.448;2022-12-29T13:07:27;14.30;76.30
63219;DHT22;49320;52.512;13.448;2022-12-29T13:10:21;14.30;76.20
63219;DHT22;49320;52.512;13.448;2022-12-29T13:15:45;14.20;76.40
63219;DHT22;49320;52.512;13.448;2022-12-29T13:22:11;14.10;76.70
63219;DHT22;49320;52.512;13.448;2022-12-29T13:28:04;14.00;77.20
63219;DHT22;49320;52.512;13.448;2022-12-29T13:30:59;13.90;76.40
63219;DHT22;49320;52.512;13.448;2022-12-29T13:33:36;14.00;77.50
63219;DHT22;49320;52.512;13.448;2022-12-29T13:36:29;13.00;76.70
63219;DHT22;49320;52.512;13.448;2022-12-29T13:39:08;13.80;77.70
63219;DHT22;49320;52.512;13.448;2022-12-29T13:41:50;13.80;77.60
63219;DHT22;49320;52.512;13.448;2022-12-29T13:44:26;13.70;77.70
63219;DHT22;49320;52.512;13.448;2022-12-29T13:47:27;13.70;78.00
63219;DHT22;49320;52.512;13.448;2022-12-29T13:49:58;13.70;78.10
63219;DHT22;49320;52.512;13.448;2022-12-29T13:52:31;13.60;78.10
63219;DHT22;49320;52.512;13.448;2022-12-29T13:55:26;13.60;77.60
63219;DHT22;49320;52.512;13.448;2022-12-29T13:58:00;13.60;78.70
63219;DHT22;49320;52.512;13.448;2022-12-29T14:01:15;13.60;78.70
63219;DHT22;49320;52.512;13.448;2022-12-29T14:03:57;13.60;79.10
63219;DHT22;49320;52.512;13.448;2022-12-29T14:06:28;13.60;78.60
63219;DHT22;49320;52.512;13.448;2022-12-29T14:09:05;13.60;79.00
63219;DHT22;49320;52.512;13.448;2022-12-29T14:11:38;13.60;79.30
63219;DHT22;49320;52.512;13.448;2022-12-29T14:14:18;13.60;79.30
63219;DHT22;49320;52.512;13.448;2022-12-29T14:16:50;13.60;79.70
63219;DHT22;49320;52.512;13.448;2022-12-29T14:19:28;13.60;79.30
63219;DHT22;49320;52.512;13.448;2022-12-29T14:22:00;13.50;79.70
63219;DHT22;49320;52.512;13.448;2022-12-29T14:26:59;13.50;79.00
63219;DHT22;49320;52.512;13.448;2022-12-29T14:31:57;13.50;79.90
63219;DHT22;49320;52.512;13.448;2022-12-29T14:34:28;13.50;79.80
63219;DHT22;49320;52.512;13.448;2022-12-29T14:37:03;13.50;80.10
63219;DHT22;49320;52.512;13.448;2022-12-29T14:39:37;13.50;79.70
63219;DHT22;49320;52.512;13.448;2022-12-29T14:47:47;13.50;80.60
63219;DHT22;49320;52.512;13.448;2022-12-29T14:50:17;13.50;80.20
63219;DHT22;49320;52.512;13.448;2022-12-29T14:55:53;13.50;80.10
63219;DHT22;49320;52.512;13.448;2022-12-29T14:58:30;13.40;80.40
63219;DHT22;49320;52.512;13.448;2022-12-29T15:00:59;13.40;80.40
63219;DHT22;49320;52.512;13.448;2022-12-29T15:03:32;13.40;80.30
63219;DHT22;49320;52.512;13.448;2022-12-29T15:06:11;13.50;80.60
63219;DHT22;49320;52.512;13.448;2022-12-29T15:08:59;13.40;80.40
63219;DHT22;49320;52.512;13.448;2022-12-29T15:16:54;13.50;79.70
63219;DHT22;49320;52.512;13.448;2022-12-29T15:19:25;13.50;80.30
63219;DHT22;49320;52.512;13.448;2022-12-29T15:21:54;13.50;80.60
63219;DHT22;49320;52.512;13.448;2022-12-29T15:24:22;13.50;80.60
63219;DHT22;49320;52.512;13.448;2022-12-29T15:26:51;13.50;80.70
63219;DHT22;49320;52.512;13.448;2022-12-29T15:29:34;13.50;81.00
63219;DHT22;49320;52.512;13.448;2022-12-29T15:34:46;13.50;80.90
63219;DHT22;49320;52.512;13.448;2022-12-29T15:37:21;13.50;80.60
63219;DHT22;49320;52.512;13.448;2022-12-29T15:40:30;13.50;80.70
63219;DHT22;49320;52.512;13.448;2022-12-29T15:43:17;13.40;80.90
63219;DHT22;49320;52.512;13.448;2022-12-29T15:45:46;13.40;80.60
63219;DHT22;49320;52.512;13.448;2022-12-29T15:48:21;13.30;80.50
63219;DHT22;49320;52.512;13.448;2022-12-29T15:50:49;13.30;80.90
63219;DHT22;49320;52.512;13.448;2022-12-29T15:53:29;13.30;80.80
63219;DHT22;49320;52.512;13.448;2022-12-29T15:56:06;13.20;81.20
63219;DHT22;49320;52.512;13.448;2022-12-29T15:58:45;13.20;81.00
63219;DHT22;49320;52.512;13.448;2022-12-29T16:03:50;13.20;81.30
63219;DHT22;49320;52.512;13.448;2022-12-29T16:06:32;13.10;81.30
63219;DHT22;49320;52.512;13.448;2022-12-29T16:11:49;13.10;81.50
63219;DHT22;49320;52.512;13.448;2022-12-29T16:14:23;13.00;81.50
63219;DHT22;49320;52.512;13.448;2022-12-29T16:17:12;13.00;81.40
63219;DHT22;49320;52.512;13.448;2022-12-29T16:19:49;13.00;81.40
63219;DHT22;49320;52.512;13.448;2022-12-29T16:22:41;13.00;81.40
63219;DHT22;49320;52.512;13.448;2022-12-29T16:25:16;12.90;80.80
63219;DHT22;49320;52.512;13.448;2022-12-29T16:27:49;12.90;81.30
63219;DHT22;49320;52.512;13.448;2022-12-29T16:30:23;12.90;81.20
63219;DHT22;49320;52.512;13.448;2022-12-29T16:33:01;12.90;81.40
63219;DHT22;49320;52.512;13.448;2022-12-29T16:35:46;12.80;81.10
63219;DHT22;49320;52.512;13.448;2022-12-29T16:38:18;12.90;81.20
63219;DHT22;49320;52.512;13.448;2022-12-29T16:41:02;12.90;80.90
63219;DHT22;49320;52.512;13.448;2022-12-29T16:43:35;12.80;80.70
63219;DHT22;49320;52.512;13.448;2022-12-29T16:46:27;12.80;80.60
63219;DHT22;49320;52.512;13.448;2022-12-29T16:48:56;12.80;80.30
63219;DHT22;49320;52.512;13.448;2022-12-29T16:51:33;12.90;80.30
63219;DHT22;49320;52.512;13.448;2022-12-29T16:54:02;12.80;79.90
63219;DHT22;49320;52.512;13.448;2022-12-29T16:56:33;12.80;80.00
63219;DHT22;49320;52.512;13.448;2022-12-29T16:59:07;12.80;79.80
63219;DHT22;49320;52.512;13.448;2022-12-29T17:01:44;12.80;79.80
63219;DHT22;49320;52.512;13.448;2022-12-29T17:04:12;12.80;79.70
63219;DHT22;49320;52.512;13.448;2022-12-29T17:06:40;12.80;79.60
63219;DHT22;49320;52.512;13.448;2022-12-29T17:09:36;12.80;79.50
63219;DHT22;49320;52.512;13.448;2022-12-29T17:12:03;12.80;79.00
63219;DHT22;49320;52.512;13.448;2022-12-29T17:14:41;12.80;79.10
63219;DHT22;49320;52.512;13.448;2022-12-29T17:17:17;12.90;78.70
63219;DHT22;49320;52.512;13.448;2022-12-29T17:19:48;12.70;78.40
63219;DHT22;49320;52.512;13.448;2022-12-29T17:22:27;12.80;77.80
63219;DHT22;49320;52.512;13.448;2022-12-29T17:24:56;12.80;78.20
63219;DHT22;49320;52.512;13.448;2022-12-29T17:27:28;12.80;78.20
63219;DHT22;49320;52.512;13.448;2022-12-29T17:30:15;12.80;78.10
63219;DHT22;49320;52.512;13.448;2022-12-29T17:32:51;12.90;77.40
63219;DHT22;49320;52.512;13.448;2022-12-29T17:35:21;12.90;77.90
63219;DHT22;49320;52.512;13.448;2022-12-29T17:37:49;12.90;77.80
63219;DHT22;49320;52.512;13.448;2022-12-29T17:40:21;13.00;78.30
63219;DHT22;49320;52.512;13.448;2022-12-29T17:42:56;13.00;77.40